Time;durP1;ratioP1;P1;durP2;ratioP2;P2;SDS_P1;SDS_P2;PMS_P1;PMS_P2;Temp;Humidity;BMP_temperature;BMP_pressure;BME280_temperature;BME280_humidity;BME280_pressure;Samples;Min_cycle;Max_cycle;Signal;HPM_P1;HPM_P2
2023/07/14 00:01:36;;;;;;;0.70;0.70;;;;;16.00;96375.00;;;;5055396;28;20199;-54
2023/07/14 00:04:11;;;;;;;0.70;0.70;;;;;15.90;96370.00;;;;5055848;28;20199;-54
2023/07/14 00:06:40;;;;;;;2.13;0.73;;;;;15.90;96376.00;;;;5055559;28;20180;-55
2023/07/14 00:09:18;;;;;;;0.57;0.57;;;;;15.90;96369.00;;;;5055388;28;20583;-54
2023/07/14 00:11:45;;;;;;;0.83;0.70;;;;;15.70;96370.00;;;;5055478;28;20176;-55
2023/07/14 00:14:12;;;;;;;1.13;1.13;;;;;15.60;96374.00;;;;5055079;28;20705;-55
2023/07/14 00:16:40;;;;;;;0.80;0.80;;;;;15.60;96371.00;;;;5053859;28;20223;-55
2023/07/14 00:19:13;;;;;;;0.60;0.60;;;;;15.50;96366.00;;;;5054918;28;20230;-55
2023/07/14 00:21:40;;;;;;;0.60;0.60;;;;;15.40;96369.00;;;;5055518;28;20259;-55
2023/07/14 00:24:13;;;;;;;0.50;0.50;;;;;15.40;96359.00;;;;5054916;28;20200;-55
2023/07/14 00:26:41;;;;;;;0.60;0.60;;;;;15.40;96365.00;;;;5055384;28;20666;-55
2023/07/14 00:29:42;;;;;;;0.83;0.83;;;;;15.50;96364.00;;;;5054752;28;20215;-55
2023/07/14 00:32:16;;;;;;;0.83;0.83;;;;;15.40;96359.00;;;;5054766;28;20193;-54
2023/07/14 00:34:45;;;;;;;0.93;0.93;;;;;15.40;96353.00;;;;5054800;28;20188;-54
2023/07/14 00:37:13;;;;;;;0.50;0.50;;;;;15.40;96355.00;;;;5054636;28;20219;-54
2023/07/14 00:39:41;;;;;;;0.57;0.57;;;;;15.50;96353.00;;;;5055140;28;20216;-53
2023/07/14 00:42:13;;;;;;;0.60;0.60;;;;;15.40;96349.00;;;;5036675;28;20196;-53
2023/07/14 00:44:41;;;;;;;0.90;0.90;;;;;15.40;96349.00;;;;5054801;28;20184;-55
2023/07/14 00:47:22;;;;;;;0.90;0.90;;;;;15.20;96355.00;;;;5054770;28;20199;-54
2023/07/14 00:49:52;;;;;;;2.27;1.57;;;;;15.00;96351.00;;;;5054454;28;20187;-54
2023/07/14 00:52:25;;;;;;;0.40;0.40;;;;;15.00;96361.00;;;;5055218;28;20192;-54
2023/07/14 00:54:53;;;;;;;1.43;1.13;;;;;14.90;96349.00;;;;5054690;28;20185;-54
2023/07/14 00:57:26;;;;;;;1.10;1.10;;;;;14.90;96347.00;;;;5054499;28;20216;-54
2023/07/14 00:59:57;;;;;;;0.63;0.63;;;;;14.90;96346.00;;;;5054253;28;20179;-55
2023/07/14 01:02:25;;;;;;;0.70;0.70;;;;;14.90;96335.00;;;;5054455;28;20192;-54
2023/07/14 01:04:59;;;;;;;0.60;0.60;;;;;15.00;96341.00;;;;5054330;28;20192;-54
2023/07/14 01:07:31;;;;;;;0.70;0.70;;;;;14.80;96341.00;;;;5054349;28;20535;-55
2023/07/14 01:10:00;;;;;;;0.90;0.90;;;;;14.90;96339.00;;;;5054312;28;20188;-55
2023/07/14 01:12:30;;;;;;;0.80;0.80;;;;;14.60;96345.00;;;;5054051;28;20192;-54
2023/07/14 01:14:59;;;;;;;0.80;0.80;;;;;14.70;96356.00;;;;5053974;28;20196;-54
2023/07/14 01:17:28;;;;;;;1.60;0.93;;;;;14.60;96353.00;;;;5053785;28;20239;-54
2023/07/14 01:20:00;;;;;;;0.70;0.70;;;;;14.50;96355.00;;;;5053787;28;20219;-55
2023/07/14 01:22:37;;;;;;;0.43;0.43;;;;;14.70;96342.00;;;;5036002;28;20615;-54
2023/07/14 01:25:15;;;;;;;0.60;0.60;;;;;14.70;96334.00;;;;5053777;28;20180;-54
2023/07/14 01:27:46;;;;;;;0.47;0.47;;;;;14.60;96333.00;;;;5053745;28;20180;-54
2023/07/14 01:30:14;;;;;;;0.87;0.87;;;;;14.70;96329.00;;;;5053872;28;20180;-55
2023/07/14 01:32:46;;;;;;;0.60;0.60;;;;;14.70;96322.00;;;;5053602;28;20196;-55
2023/07/14 01:35:14;;;;;;;0.60;0.60;;;;;14.70;96321.00;;;;5053619;28;20184;-54
2023/07/14 01:37:42;;;;;;;0.70;0.70;;;;;14.70;96317.00;;;;5053691;28;20579;-55
2023/07/14 01:40:13;;;;;;;0.60;0.60;;;;;14.60;96318.00;;;;5053555;28;20219;-56
2023/07/14 01:42:44;;;;;;;1.07;1.07;;;;;14.60;96318.00;;;;5053479;28;20185;-54
2023/07/14 01:45:15;;;;;;;0.53;0.53;;;;;14.50;96321.00;;;;5053698;28;20180;-55
2023/07/14 01:47:45;;;;;;;0.67;0.67;;;;;14.30;96312.00;;;;5053762;28;20179;-55
2023/07/14 01:50:17;;;;;;;0.70;0.70;;;;;14.40;96315.00;;;;5053600;28;20215;-54
2023/07/14 01:52:48;;;;;;;0.90;0.90;;;;;14.40;96310.00;;;;5053371;28;20192;-54
2023/07/14 01:55:19;;;;;;;0.50;0.50;;;;;14.40;96310.00;;;;5053800;28;20192;-54
2023/07/14 01:57:50;;;;;;;0.50;0.50;;;;;14.50;96310.00;;;;5053067;28;20634;-55
2023/07/14 02:00:18;;;;;;;0.93;0.93;;;;;14.40;96305.00;;;;5035565;28;20206;-54
2023/07/14 02:02:47;;;;;;;0.60;0.60;;;;;14.40;96307.00;;;;5053127;28;20196;-54
2023/07/14 02:05:23;;;;;;;0.60;0.60;;;;;14.20;96303.00;;;;5053312;28;20219;-54
2023/07/14 02:07:51;;;;;;;0.70;0.70;;;;;14.00;96301.00;;;;5052951;28;20215;-54
2023/07/14 02:10:20;;;;;;;0.50;0.50;;;;;14.00;96300.00;;;;5053000;28;20200;-54
2023/07/14 02:12:50;;;;;;;0.53;0.53;;;;;14.00;96311.00;;;;5053248;28;20196;-54
2023/07/14 02:15:21;;;;;;;0.77;0.77;;;;;14.00;96306.00;;;;5053036;28;20198;-55
2023/07/14 02:17:50;;;;;;;0.70;0.70;;;;;13.90;96299.00;;;;5053117;28;20230;-54
2023/07/14 02:20:21;;;;;;;0.70;0.70;;;;;14.00;96301.00;;;;5053037;28;20184;-54
2023/07/14 02:22:50;;;;;;;0.70;0.70;;;;;14.10;96299.00;;;;5052891;28;20181;-54
2023/07/14 02:25:19;;;;;;;0.83;0.83;;;;;14.10;96298.00;;;;5052912;28;20203;-54
2023/07/14 02:27:48;;;;;;;0.90;0.90;;;;;13.90;96297.00;;;;5052767;28;20211;-55
2023/07/14 02:30:19;;;;;;;0.93;0.93;;;;;13.90;96291.00;;;;5053002;28;20670;-54
2023/07/14 02:32:51;;;;;;;0.83;0.83;;;;;13.90;96289.00;;;;5052972;28;20579;-54
2023/07/14 02:35:29;;;;;;;0.63;0.63;;;;;14.00;96292.00;;;;5053106;28;20235;-54
2023/07/14 02:38:04;;;;;;;0.97;0.97;;;;;14.00;96290.00;;;;5052887;28;20230;-54
2023/07/14 02:40:37;;;;;;;0.87;0.87;;;;;14.00;96287.00;;;;5054540;28;20271;-54
2023/07/14 02:43:10;;;;;;;1.00;1.00;;;;;14.00;96285.00;;;;5057161;28;20208;-55
2023/07/14 02:45:45;;;;;;;0.70;0.70;;;;;13.90;96286.00;;;;5056889;28;20238;-55
2023/07/14 02:48:17;;;;;;;0.83;0.83;;;;;13.90;96283.00;;;;5056925;28;20200;-55
2023/07/14 02:50:45;;;;;;;0.50;0.50;;;;;13.90;96283.00;;;;5057011;28;20188;-54
2023/07/14 02:53:13;;;;;;;0.70;0.70;;;;;13.90;96290.00;;;;5056873;28;20196;-54
2023/07/14 02:55:41;;;;;;;0.80;0.80;;;;;13.80;96285.00;;;;5038730;28;20202;-55
2023/07/14 02:58:09;;;;;;;0.70;0.70;;;;;13.80;96278.00;;;;5038513;28;20232;-54
2023/07/14 03:00:37;;;;;;;0.57;0.57;;;;;13.80;96266.00;;;;5056777;28;20612;-54
2023/07/14 03:03:05;;;;;;;0.53;0.53;;;;;13.70;96270.00;;;;5057245;28;20551;-54
2023/07/14 03:05:32;;;;;;;0.83;0.83;;;;;13.70;96265.00;;;;5056425;28;20200;-54
2023/07/14 03:08:00;;;;;;;1.03;0.97;;;;;13.60;96271.00;;;;5056761;28;20214;-54
2023/07/14 03:10:28;;;;;;;0.80;0.80;;;;;13.60;96258.00;;;;5056371;28;20203;-55
2023/07/14 03:12:55;;;;;;;0.70;0.70;;;;;13.50;96257.00;;;;5056600;28;20552;-55
2023/07/14 03:15:24;;;;;;;0.70;0.70;;;;;13.60;96258.00;;;;5056268;28;20200;-55
2023/07/14 03:17:52;;;;;;;0.97;0.97;;;;;13.40;96257.00;;;;5056093;28;20224;-53
2023/07/14 03:20:19;;;;;;;0.60;0.60;;;;;13.30;96249.00;;;;5056506;28;20222;-54
2023/07/14 03:22:47;;;;;;;0.77;0.77;;;;;13.40;96248.00;;;;5056250;28;20192;-54
2023/07/14 03:25:15;;;;;;;0.80;0.80;;;;;13.60;96249.00;;;;5056057;28;20188;-55
2023/07/14 03:27:44;;;;;;;0.97;0.97;;;;;13.60;96247.00;;;;5056185;28;20188;-55
2023/07/14 03:30:11;;;;;;;0.60;0.60;;;;;13.50;96238.00;;;;5056002;28;20219;-55
2023/07/14 03:32:40;;;;;;;0.50;0.50;;;;;13.50;96240.00;;;;5055968;28;20192;-56
2023/07/14 03:35:08;;;;;;;0.80;0.80;;;;;13.50;96242.00;;;;5055981;28;20193;-56
2023/07/14 03:37:36;;;;;;;0.60;0.60;;;;;13.50;96236.00;;;;5055737;28;20220;-55
2023/07/14 03:40:05;;;;;;;0.90;0.90;;;;;13.30;96234.00;;;;5055809;28;20196;-55
2023/07/14 03:42:33;;;;;;;0.80;0.80;;;;;13.30;96235.00;;;;5037906;28;20250;-55
2023/07/14 03:45:00;;;;;;;0.77;0.77;;;;;13.20;96236.00;;;;5056039;28;20671;-55
2023/07/14 03:47:28;;;;;;;0.83;0.83;;;;;13.30;96236.00;;;;5055902;28;20188;-55
2023/07/14 03:49:56;;;;;;;1.13;1.13;;;;;13.40;96234.00;;;;5055918;28;20196;-55
2023/07/14 03:52:24;;;;;;;1.17;0.80;;;;;13.40;96235.00;;;;5055427;28;20195;-55
2023/07/14 03:54:51;;;;;;;1.43;1.37;;;;;13.50;96240.00;;;;5055520;28;20212;-55
2023/07/14 03:57:19;;;;;;;1.07;1.07;;;;;13.50;96233.00;;;;5055478;28;20223;-56
2023/07/14 03:59:46;;;;;;;0.60;0.60;;;;;13.60;96241.00;;;;5055410;28;20219;-55
2023/07/14 04:02:14;;;;;;;0.77;0.77;;;;;13.70;96242.00;;;;5055402;28;20196;-57
2023/07/14 04:04:41;;;;;;;0.70;0.70;;;;;13.70;96246.00;;;;5055440;28;20667;-55
2023/07/14 04:07:10;;;;;;;0.70;0.70;;;;;13.70;96247.00;;;;5055343;28;20196;-55
2023/07/14 04:09:37;;;;;;;0.77;0.77;;;;;13.80;96245.00;;;;5055538;28;20219;-56
2023/07/14 04:12:06;;;;;;;0.70;0.70;;;;;13.70;96240.00;;;;5055520;28;20203;-55
2023/07/14 04:14:34;;;;;;;0.60;0.60;;;;;13.80;96235.00;;;;5055173;28;20192;-55
2023/07/14 04:17:03;;;;;;;0.67;0.67;;;;;13.90;96241.00;;;;5055154;28;20196;-55
2023/07/14 04:19:30;;;;;;;0.90;0.90;;;;;13.80;96222.00;;;;5054887;28;20227;-55
2023/07/14 04:21:58;;;;;;;0.70;0.70;;;;;13.80;96227.00;;;;5037161;28;20301;-55
2023/07/14 04:24:27;;;;;;;0.70;0.70;;;;;13.70;96220.00;;;;5054991;28;20275;-55
2023/07/14 04:26:55;;;;;;;1.17;1.13;;;;;13.70;96218.00;;;;5055195;28;20188;-54
2023/07/14 04:29:23;;;;;;;2.83;1.50;;;;;13.80;96211.00;;;;5054795;28;20212;-54
2023/07/14 04:31:51;;;;;;;0.70;0.70;;;;;13.90;96210.00;;;;5054784;28;20196;-55
2023/07/14 04:34:18;;;;;;;0.97;0.97;;;;;13.90;96217.00;;;;5055039;28;20215;-55
2023/07/14 04:36:47;;;;;;;0.73;0.73;;;;;14.00;96212.00;;;;5054960;28;20220;-55
2023/07/14 04:39:14;;;;;;;0.63;0.63;;;;;14.00;96216.00;;;;5054454;28;20216;-55
2023/07/14 04:41:44;;;;;;;0.50;0.50;;;;;14.10;96215.00;;;;5054898;28;20192;-55
2023/07/14 04:44:13;;;;;;;0.70;0.70;;;;;14.20;96204.00;;;;5054666;28;20260;-55
2023/07/14 04:46:42;;;;;;;0.80;0.80;;;;;14.10;96207.00;;;;5054512;28;20196;-54
2023/07/14 04:49:10;;;;;;;0.50;0.50;;;;;14.10;96209.00;;;;5054530;28;20573;-54
2023/07/14 04:51:38;;;;;;;0.73;0.73;;;;;14.10;96210.00;;;;5054672;28;20210;-54
2023/07/14 04:54:06;;;;;;;0.93;0.93;;;;;14.10;96210.00;;;;5054388;28;20675;-54
2023/07/14 04:56:34;;;;;;;0.80;0.80;;;;;14.00;96219.00;;;;5054255;28;20616;-54
2023/07/14 04:59:05;;;;;;;0.70;0.70;;;;;14.20;96216.00;;;;5053984;28;20227;-54
2023/07/14 05:01:32;;;;;;;1.27;1.27;;;;;14.20;96206.00;;;;5054412;28;20191;-54
2023/07/14 05:04:00;;;;;;;1.03;1.03;;;;;14.30;96215.00;;;;5053815;28;20192;-55
2023/07/14 05:06:27;;;;;;;0.80;0.80;;;;;14.30;96210.00;;;;5054174;28;20262;-54
2023/07/14 05:08:55;;;;;;;1.10;1.10;;;;;14.40;96208.00;;;;5053972;28;20224;-54
2023/07/14 05:11:23;;;;;;;0.70;0.70;;;;;14.30;96208.00;;;;5054051;28;20192;-55
2023/07/14 05:13:52;;;;;;;1.23;1.23;;;;;14.40;96194.00;;;;5053862;28;20722;-54
2023/07/14 05:16:21;;;;;;;0.70;0.70;;;;;14.60;96187.00;;;;5053850;28;20192;-54
2023/07/14 05:18:49;;;;;;;0.70;0.70;;;;;14.50;96193.00;;;;5053573;28;20220;-56
2023/07/14 05:21:16;;;;;;;0.70;0.70;;;;;14.60;96192.00;;;;5053912;28;20207;-54
2023/07/14 05:23:44;;;;;;;0.87;0.87;;;;;14.80;96204.00;;;;5053848;28;20200;-54
2023/07/14 05:26:11;;;;;;;0.50;0.50;;;;;14.70;96198.00;;;;5054098;28;20538;-55
2023/07/14 05:28:39;;;;;;;0.70;0.70;;;;;14.70;96197.00;;;;5053935;28;20200;-54
2023/07/14 05:31:08;;;;;;;0.80;0.80;;;;;14.70;96207.00;;;;5035902;28;20192;-54
2023/07/14 05:33:37;;;;;;;0.67;0.67;;;;;14.70;96198.00;;;;5053656;28;20192;-54
2023/07/14 05:36:05;;;;;;;1.13;1.03;;;;;14.80;96197.00;;;;5053634;28;20283;-54
2023/07/14 05:38:32;;;;;;;0.70;0.70;;;;;15.00;96201.00;;;;5053332;28;20212;-55
2023/07/14 05:41:03;;;;;;;0.63;0.63;;;;;14.90;96187.00;;;;5035982;28;20196;-55
2023/07/14 05:43:31;;;;;;;0.93;0.93;;;;;15.00;96189.00;;;;5035604;28;20207;-55
2023/07/14 05:45:59;;;;;;;0.60;0.60;;;;;14.90;96198.00;;;;5053416;28;20198;-55
2023/07/14 05:48:26;;;;;;;0.50;0.50;;;;;14.90;96202.00;;;;5053402;28;20215;-56
2023/07/14 05:50:55;;;;;;;1.80;1.13;;;;;14.90;96197.00;;;;5053631;28;20286;-55
2023/07/14 05:53:23;;;;;;;0.63;0.63;;;;;14.70;96195.00;;;;5053348;28;20188;-56
2023/07/14 05:55:50;;;;;;;0.70;0.70;;;;;14.90;96185.00;;;;5053209;28;20246;-54
2023/07/14 05:58:17;;;;;;;0.63;0.63;;;;;14.90;96193.00;;;;5052964;28;20692;-54
2023/07/14 06:00:45;;;;;;;0.87;0.87;;;;;14.70;96198.00;;;;5053014;28;20192;-55
2023/07/14 06:03:16;;;;;;;0.67;0.67;;;;;15.00;96198.00;;;;5035277;28;20202;-54
2023/07/14 06:05:43;;;;;;;0.67;0.67;;;;;15.10;96190.00;;;;5053341;28;20246;-55
2023/07/14 06:08:13;;;;;;;1.07;1.07;;;;;15.30;96177.00;;;;5053121;28;20239;-54
2023/07/14 06:10:40;;;;;;;0.80;0.80;;;;;15.50;96179.00;;;;5053023;28;20192;-55
2023/07/14 06:13:08;;;;;;;0.50;0.50;;;;;15.50;96180.00;;;;5053268;28;20208;-54
2023/07/14 06:15:36;;;;;;;0.57;0.57;;;;;15.40;96182.00;;;;5052075;28;20196;-54
2023/07/14 06:18:05;;;;;;;0.70;0.70;;;;;15.60;96178.00;;;;5052453;28;20722;-54
2023/07/14 06:20:33;;;;;;;2.07;1.17;;;;;15.90;96186.00;;;;5051123;28;20265;-54
2023/07/14 06:23:00;;;;;;;0.83;0.83;;;;;16.00;96178.00;;;;5049640;28;20192;-55
2023/07/14 06:25:29;;;;;;;0.90;0.90;;;;;16.00;96172.00;;;;5050580;28;20204;-55
2023/07/14 06:27:57;;;;;;;0.70;0.70;;;;;16.20;96168.00;;;;5049465;28;20627;-55
2023/07/14 06:30:25;;;;;;;0.87;0.87;;;;;16.40;96169.00;;;;5050762;28;20228;-55
2023/07/14 06:32:52;;;;;;;0.73;0.73;;;;;16.60;96163.00;;;;5050547;28;20207;-55
2023/07/14 06:35:20;;;;;;;1.13;1.13;;;;;16.90;96160.00;;;;5050677;28;20242;-55
2023/07/14 06:37:47;;;;;;;0.50;0.50;;;;;17.10;96158.00;;;;5050409;28;20222;-55
2023/07/14 06:40:15;;;;;;;0.70;0.70;;;;;17.40;96154.00;;;;5050600;28;20270;-55
2023/07/14 06:42:44;;;;;;;1.30;1.30;;;;;17.30;96150.00;;;;5032680;28;20203;-55
2023/07/14 06:45:11;;;;;;;0.80;0.80;;;;;17.70;96154.00;;;;5049436;28;20196;-55
2023/07/14 06:47:40;;;;;;;0.60;0.60;;;;;17.70;96153.00;;;;5050336;28;20211;-55
2023/07/14 06:50:08;;;;;;;1.00;1.00;;;;;17.90;96158.00;;;;5050257;28;20555;-55
2023/07/14 06:52:37;;;;;;;0.57;0.57;;;;;17.90;96143.00;;;;5050018;28;20559;-55
2023/07/14 06:55:05;;;;;;;0.77;0.77;;;;;17.90;96154.00;;;;5050138;28;20600;-56
2023/07/14 06:57:33;;;;;;;1.53;0.83;;;;;17.90;96143.00;;;;5050832;28;20196;-55
2023/07/14 07:00:05;;;;;;;0.60;0.60;;;;;17.90;96142.00;;;;5050001;28;20220;-55
2023/07/14 07:02:33;;;;;;;0.63;0.63;;;;;18.00;96138.00;;;;5050842;28;20242;-55
2023/07/14 07:05:00;;;;;;;0.97;0.97;;;;;18.20;96131.00;;;;5050118;28;20258;-55
2023/07/14 07:07:28;;;;;;;0.70;0.70;;;;;18.40;96138.00;;;;5050216;28;20552;-55
2023/07/14 07:09:56;;;;;;;0.77;0.77;;;;;18.50;96142.00;;;;5048970;28;20189;-55
2023/07/14 07:12:24;;;;;;;1.50;1.40;;;;;18.70;96138.00;;;;5050353;28;20246;-55
2023/07/14 07:14:52;;;;;;;0.40;0.40;;;;;19.00;96135.00;;;;5050226;28;20719;-55
2023/07/14 07:17:21;;;;;;;0.60;0.60;;;;;18.90;96133.00;;;;5050505;28;20563;-55
2023/07/14 07:19:49;;;;;;;0.70;0.70;;;;;19.30;96131.00;;;;5050077;28;20310;-55
2023/07/14 07:22:16;;;;;;;1.93;0.87;;;;;19.40;96131.00;;;;5050201;28;20192;-55
2023/07/14 07:24:44;;;;;;;4.93;0.87;;;;;19.60;96137.00;;;;5050166;28;20204;-55
2023/07/14 07:27:12;;;;;;;1.03;0.87;;;;;19.70;96132.00;;;;5052918;28;20204;-55
2023/07/14 07:29:42;;;;;;;0.77;0.77;;;;;19.70;96131.00;;;;5053895;28;20725;-55
2023/07/14 07:32:10;;;;;;;0.80;0.80;;;;;19.80;96143.00;;;;5054101;28;20204;-54
2023/07/14 07:34:39;;;;;;;0.53;0.53;;;;;20.00;96139.00;;;;5053785;28;20192;-54
2023/07/14 07:37:07;;;;;;;0.93;0.93;;;;;20.20;96132.00;;;;5053691;28;20242;-54
2023/07/14 07:39:35;;;;;;;0.90;0.90;;;;;20.30;96125.00;;;;5052335;28;20254;-54
2023/07/14 07:42:03;;;;;;;1.30;0.90;;;;;20.30;96127.00;;;;5054007;28;20246;-55
2023/07/14 07:44:31;;;;;;;0.40;0.40;;;;;20.40;96121.00;;;;5053322;28;20536;-55
2023/07/14 07:46:59;;;;;;;0.90;0.90;;;;;20.70;96114.00;;;;5053701;28;20200;-55
2023/07/14 07:49:26;;;;;;;0.40;0.40;;;;;20.90;96106.00;;;;5053382;28;20572;-55
2023/07/14 07:51:56;;;;;;;0.80;0.80;;;;;21.10;96113.00;;;;5053799;28;20667;-54
2023/07/14 07:54:23;;;;;;;0.53;0.53;;;;;21.50;96108.00;;;;5053085;28;20200;-54
2023/07/14 07:56:50;;;;;;;0.60;0.60;;;;;21.80;96098.00;;;;5053851;28;20214;-54
2023/07/14 07:59:18;;;;;;;0.95;0.95;;;;;21.90;96098.00;;;;5053225;28;20598;-54
2023/07/14 08:01:46;;;;;;;4.38;0.95;;;;;22.00;96096.00;;;;5053734;28;20203;-54
2023/07/14 08:04:14;;;;;;;1.38;0.73;;;;;22.40;96097.00;;;;5035397;28;20200;-54
2023/07/14 08:06:41;;;;;;;0.40;0.40;;;;;22.60;96085.00;;;;5050436;28;20196;-55
2023/07/14 08:09:12;;;;;;;0.82;0.82;;;;;22.60;96095.00;;;;5032305;28;20216;-54
2023/07/14 08:11:39;;;;;;;0.70;0.70;;;;;22.70;96087.00;;;;5053530;28;20207;-55
2023/07/14 08:14:11;;;;;;;0.70;0.70;;;;;22.60;96095.00;;;;5053335;28;20581;-54
2023/07/14 08:16:39;;;;;;;0.60;0.60;;;;;22.80;96089.00;;;;5035169;28;20196;-55
2023/07/14 08:19:06;;;;;;;0.60;0.60;;;;;22.80;96079.00;;;;5052607;28;20220;-55
2023/07/14 08:21:36;;;;;;;0.50;0.50;;;;;23.10;96078.00;;;;5052973;28;20192;-56
2023/07/14 08:24:04;;;;;;;0.60;0.60;;;;;23.10;96095.00;;;;5035028;28;20237;-55
2023/07/14 08:26:35;;;;;;;2.70;0.98;;;;;23.20;96084.00;;;;5052489;28;20199;-54
2023/07/14 08:29:04;;;;;;;0.43;0.43;;;;;23.10;96074.00;;;;5052790;28;20216;-54
2023/07/14 08:31:32;;;;;;;0.70;0.70;;;;;23.10;96072.00;;;;5051768;28;20196;-55
2023/07/14 08:34:00;;;;;;;0.60;0.60;;;;;23.40;96069.00;;;;5052759;28;20196;-55
2023/07/14 08:36:27;;;;;;;0.85;0.73;;;;;23.40;96067.00;;;;5052826;28;20230;-54
2023/07/14 08:38:55;;;;;;;0.82;0.77;;;;;23.50;96070.00;;;;5051746;28;20227;-54
2023/07/14 08:41:28;;;;;;;0.60;0.60;;;;;23.70;96077.00;;;;5052689;28;20206;-55
2023/07/14 08:44:20;;;;;;;0.60;0.60;;;;;23.70;96080.00;;;;5048349;28;20271;-56
2023/07/14 08:46:55;;;;;;;0.73;0.73;;;;;23.70;96075.00;;;;5052979;28;20200;-55
2023/07/14 08:49:27;;;;;;;0.47;0.47;;;;;23.60;96073.00;;;;5047666;28;20295;-56
2023/07/14 08:51:57;;;;;;;0.70;0.70;;;;;23.70;96076.00;;;;5048564;28;20290;-56
2023/07/14 08:54:30;;;;;;;0.60;0.60;;;;;23.40;96078.00;;;;5052103;28;20206;-53
2023/07/14 08:56:58;;;;;;;0.70;0.70;;;;;23.50;96082.00;;;;5052614;28;20218;-54
2023/07/14 08:59:34;;;;;;;1.27;1.17;;;;;23.50;96080.00;;;;5052063;28;20224;-54
2023/07/14 09:02:05;;;;;;;0.75;0.75;;;;;23.50;96076.00;;;;5050510;28;20206;-55
2023/07/14 09:04:37;;;;;;;0.63;0.63;;;;;23.60;96079.00;;;;5052208;28;20570;-55
2023/07/14 09:07:08;;;;;;;0.57;0.57;;;;;23.60;96074.00;;;;5033592;28;20192;-55
2023/07/14 09:09:39;;;;;;;0.88;0.88;;;;;23.80;96078.00;;;;5052035;28;20250;-55
2023/07/14 09:12:17;;;;;;;0.60;0.60;;;;;23.90;96073.00;;;;5034087;28;20196;-55
2023/07/14 09:15:00;;;;;;;2.10;1.25;;;;;23.80;96075.00;;;;5052129;28;20184;-55
2023/07/14 09:17:45;;;;;;;1.98;1.52;;;;;23.70;96084.00;;;;5051908;28;20598;-55
2023/07/14 09:20:40;;;;;;;1.10;0.98;;;;;23.70;96083.00;;;;5051655;28;20218;-55
2023/07/14 09:23:32;;;;;;;1.08;1.08;;;;;23.60;96086.00;;;;5052240;28;20188;-55
2023/07/14 09:26:09;;;;;;;0.40;0.40;;;;;23.90;96078.00;;;;5049512;28;20200;-55
2023/07/14 09:28:40;;;;;;;0.43;0.43;;;;;23.80;96079.00;;;;5052014;28;20216;-55
2023/07/14 09:31:22;;;;;;;0.75;0.75;;;;;23.50;96078.00;;;;5051430;28;20238;-56
2023/07/14 09:33:57;;;;;;;0.50;0.50;;;;;23.40;96073.00;;;;5049102;28;20725;-54
2023/07/14 09:36:26;;;;;;;0.50;0.50;;;;;23.50;96077.00;;;;5049556;28;20201;-55
2023/07/14 09:38:56;;;;;;;0.88;0.88;;;;;23.70;96071.00;;;;5051809;28;20710;-55
2023/07/14 09:41:25;;;;;;;0.60;0.60;;;;;23.50;96069.00;;;;5051186;28;20202;-55
2023/07/14 09:43:57;;;;;;;0.70;0.70;;;;;23.00;96068.00;;;;5051881;28;20200;-55
2023/07/14 09:46:29;;;;;;;1.25;1.08;;;;;23.20;96069.00;;;;5051392;28;20191;-55
2023/07/14 09:49:05;;;;;;;0.60;0.60;;;;;23.40;96067.00;;;;5051165;28;20217;-55
2023/07/14 09:51:33;;;;;;;0.82;0.82;;;;;23.70;96065.00;;;;5047626;28;20557;-55
2023/07/14 09:54:06;;;;;;;3.20;1.20;;;;;23.60;96064.00;;;;5051256;28;20307;-55
2023/07/14 09:56:37;;;;;;;0.80;0.80;;;;;23.70;96070.00;;;;5051211;28;20196;-58
2023/07/14 09:59:07;;;;;;;0.60;0.60;;;;;23.40;96060.00;;;;5051123;28;20215;-55
2023/07/14 10:01:49;;;;;;;0.63;0.63;;;;;23.50;96053.00;;;;5050421;28;20196;-55
2023/07/14 10:04:18;;;;;;;0.60;0.60;;;;;24.00;96054.00;;;;5051027;28;20222;-56
2023/07/14 10:06:47;;;;;;;0.60;0.60;;;;;24.30;96053.00;;;;5046874;28;20537;-56
2023/07/14 10:09:16;;;;;;;0.85;0.85;;;;;24.50;96055.00;;;;5049815;28;20526;-55
2023/07/14 10:11:45;;;;;;;0.60;0.60;;;;;24.50;96052.00;;;;5051387;28;20697;-55
2023/07/14 10:14:25;;;;;;;0.50;0.50;;;;;24.80;96053.00;;;;5051198;28;20195;-55
2023/07/14 10:16:56;;;;;;;0.82;0.82;;;;;25.00;96055.00;;;;5051129;28;20206;-55
2023/07/14 10:19:33;;;;;;;0.75;0.75;;;;;25.20;96053.00;;;;5032899;28;20802;-56
2023/07/14 10:22:04;;;;;;;0.82;0.82;;;;;25.00;96043.00;;;;5051024;28;20196;-55
2023/07/14 10:24:33;;;;;;;0.60;0.60;;;;;25.30;96045.00;;;;5049798;28;20233;-55
2023/07/14 10:27:08;;;;;;;2.10;1.30;;;;;25.30;96047.00;;;;5051609;28;20612;-56
2023/07/14 10:29:46;;;;;;;0.85;0.85;;;;;25.50;96051.00;;;;5046701;28;20218;-55
2023/07/14 10:32:24;;;;;;;0.70;0.70;;;;;25.60;96049.00;;;;5050931;28;20631;-55
2023/07/14 10:34:58;;;;;;;3.50;1.30;;;;;25.60;96048.00;;;;5031819;28;20281;-55
2023/07/14 10:37:28;;;;;;;0.50;0.50;;;;;25.30;96051.00;;;;5051361;28;20522;-55
2023/07/14 10:40:00;;;;;;;0.40;0.40;;;;;25.10;96047.00;;;;5050691;28;20216;-55
2023/07/14 10:42:31;;;;;;;0.77;0.77;;;;;25.20;96037.00;;;;5050836;28;20655;-55
2023/07/14 10:45:00;;;;;;;0.80;0.80;;;;;25.50;96035.00;;;;5050811;28;20215;-56
2023/07/14 10:47:33;;;;;;;1.95;1.27;;;;;25.30;96034.00;;;;5050824;28;20196;-56
2023/07/14 10:50:08;;;;;;;0.82;0.82;;;;;24.70;96028.00;;;;5051222;28;20188;-56
2023/07/14 10:52:39;;;;;;;1.15;1.15;;;;;25.10;96029.00;;;;5050881;28;20196;-56
2023/07/14 10:55:16;;;;;;;0.50;0.50;;;;;25.40;96022.00;;;;5051275;28;20184;-56
2023/07/14 10:57:50;;;;;;;0.55;0.55;;;;;25.70;96025.00;;;;5046237;28;20554;-56
2023/07/14 11:00:25;;;;;;;0.50;0.50;;;;;25.80;96019.00;;;;5047072;28;20215;-56
2023/07/14 11:03:16;;;;;;;0.60;0.60;;;;;26.00;96020.00;;;;5054251;28;20192;-57
2023/07/14 11:05:51;;;;;;;2.55;1.05;;;;;26.00;96014.00;;;;5050165;28;20189;-56
2023/07/14 11:08:23;;;;;;;0.57;0.57;;;;;25.70;96014.00;;;;5051055;28;20224;-55
2023/07/14 11:10:58;;;;;;;0.68;0.68;;;;;25.80;96011.00;;;;5054635;28;20658;-55
2023/07/14 11:13:37;;;;;;;0.73;0.73;;;;;25.60;96010.00;;;;5054455;28;20226;-55
2023/07/14 11:16:09;;;;;;;0.93;0.73;;;;;25.70;96012.00;;;;5054410;28;20187;-55
2023/07/14 11:18:48;;;;;;;0.40;0.40;;;;;25.90;95999.00;;;;5054389;28;20721;-55
2023/07/14 11:21:28;;;;;;;0.70;0.70;;;;;25.90;96006.00;;;;5035917;28;20222;-56
2023/07/14 11:24:08;;;;;;;0.65;0.55;;;;;26.20;96002.00;;;;5054542;28;20250;-56
2023/07/14 11:26:43;;;;;;;0.50;0.50;;;;;26.10;96009.00;;;;5053277;28;20202;-57
2023/07/14 11:29:15;;;;;;;0.40;0.40;;;;;26.20;96012.00;;;;5054608;28;20671;-54
2023/07/14 11:31:52;;;;;;;1.58;1.48;;;;;26.20;96005.00;;;;5053712;28;20203;-55
2023/07/14 11:34:30;;;;;;;0.63;0.63;;;;;26.20;95997.00;;;;5054389;28;20226;-57
2023/07/14 11:37:08;;;;;;;0.60;0.60;;;;;26.10;95994.00;;;;5053924;28;20192;-57
2023/07/14 11:39:44;;;;;;;0.57;0.57;;;;;26.00;95992.00;;;;5050240;28;20212;-55
2023/07/14 11:42:21;;;;;;;0.82;0.82;;;;;26.00;95984.00;;;;5035928;28;20206;-55
2023/07/14 11:44:51;;;;;;;0.77;0.77;;;;;25.60;95975.00;;;;5036272;28;20195;-55
2023/07/14 11:47:32;;;;;;;0.57;0.57;;;;;26.30;95970.00;;;;5053800;28;20196;-55
2023/07/14 11:50:02;;;;;;;0.50;0.50;;;;;26.10;95989.00;;;;5050180;28;20184;-55
2023/07/14 11:52:31;;;;;;;0.70;0.70;;;;;25.40;95974.00;;;;5035215;28;20314;-55
2023/07/14 11:55:04;;;;;;;0.55;0.55;;;;;25.80;95976.00;;;;5035593;28;20231;-55
2023/07/14 11:57:46;;;;;;;0.82;0.82;;;;;26.10;95960.00;;;;5053435;28;20184;-56
2023/07/14 12:00:26;;;;;;;11.32;1.10;;;;;26.70;95974.00;;;;5053305;28;20406;-56
2023/07/14 12:03:03;;;;;;;0.82;0.82;;;;;26.00;95970.00;;;;5053409;28;20202;-55
2023/07/14 12:05:35;;;;;;;1.75;1.02;;;;;26.60;95962.00;;;;5053361;28;20184;-56
2023/07/14 12:08:31;;;;;;;1.92;1.63;;;;;26.80;95964.00;;;;5053294;28;20711;-56
2023/07/14 12:11:03;;;;;;;0.73;0.73;;;;;26.80;95972.00;;;;5052566;28;20211;-56
2023/07/14 12:13:35;;;;;;;2.53;0.82;;;;;26.80;95971.00;;;;5053321;28;20216;-55
2023/07/14 12:16:24;;;;;;;0.90;0.85;;;;;26.40;95954.00;;;;5055177;28;20184;-56
2023/07/14 12:19:21;;;;;;;0.65;0.65;;;;;26.40;95959.00;;;;5051989;28;20699;-55
2023/07/14 12:22:04;;;;;;;1.00;1.00;;;;;26.30;95951.00;;;;5051406;28;20299;-55
2023/07/14 12:24:36;;;;;;;0.70;0.70;;;;;26.60;95955.00;;;;5049392;28;20216;-55
2023/07/14 12:27:25;;;;;;;0.70;0.70;;;;;26.50;95942.00;;;;5052172;28;20196;-56
2023/07/14 12:30:03;;;;;;;0.60;0.60;;;;;26.50;95958.00;;;;5049690;28;20644;-55
2023/07/14 12:32:30;;;;;;;0.90;0.90;;;;;26.70;95945.00;;;;5053256;28;20199;-55
2023/07/14 12:34:58;;;;;;;0.77;0.77;;;;;26.90;95942.00;;;;5052825;28;20222;-55
2023/07/14 12:37:33;;;;;;;0.50;0.50;;;;;27.20;95944.00;;;;5052566;28;20199;-55